Terminal Aerodrome Forecast
Issued by NWS Chicago, IL

Home | Current Version | Previous Version | Text Only | Print | Product List | Glossary On
Versions: 1 2 3 4 5 6 7 8 9 10 11 12 13 14 15 16 17 18 19 20 21 22 23 24 25 26 27 28 29
814
FTUS43 KLOT 291139
TAFRFD
TAF
KRFD 291139Z 2912/3012 24012G19KT P6SM SCT050 BKN250
     FM292200 24011KT P6SM VCTS BKN050CB
      TEMPO 2923/3003 2SM TSRA OVC035CB
     FM300300 19004KT 4SM BR VCSH SCT015 OVC050=

USA.gov is the U.S. government's official web portal to all federal, state and local government web resources and services.